Time;durP1;ratioP1;P1;durP2;ratioP2;P2;SDS_P1;SDS_P2;PMS_P1;PMS_P2;Temp;Humidity;BMP_temperature;BMP_pressure;BME280_temperature;BME280_humidity;BME280_pressure;Samples;Min_cycle;Max_cycle;Signal;HPM_P1;HPM_P2
2022/05/25 00:02:23;;;;;;;;;;;9.70;99.90;;;;;;6246992;23;20322;-70
2022/05/25 00:04:48;;;;;;;;;;;9.70;99.90;;;;;;6219927;23;19920;-72
2022/05/25 00:07:14;;;;;;;;;;;9.60;99.90;;;;;;6247381;23;19926;-69
2022/05/25 00:09:40;;;;;;;;;;;9.60;99.90;;;;;;6247148;23;19927;-70
2022/05/25 00:12:06;;;;;;;;;;;9.60;99.90;;;;;;6247035;23;19924;-73
2022/05/25 00:14:32;;;;;;;;;;;9.50;99.90;;;;;;6246591;23;19919;-69
2022/05/25 00:16:58;;;;;;;;;;;9.70;99.90;;;;;;6246641;23;20007;-70
2022/05/25 00:22:08;;;;;;;;;;;9.60;99.90;;;;;;6246714;23;19920;-71
2022/05/25 00:24:33;;;;;;;;;;;9.60;99.90;;;;;;6246746;23;19969;-71
2022/05/25 00:26:59;;;;;;;;;;;9.60;99.90;;;;;;6246532;23;19927;-70
2022/05/25 00:29:25;;;;;;;;;;;9.60;99.90;;;;;;6246351;23;19927;-69
2022/05/25 00:31:51;;;;;;;;;;;9.50;99.90;;;;;;6246016;23;19958;-69
2022/05/25 00:34:16;;;;;;;;;;;9.50;99.90;;;;;;6246654;23;19919;-70
2022/05/25 00:36:45;;;;;;;;;;;9.50;99.90;;;;;;6246717;23;19927;-70
2022/05/25 00:39:11;;;;;;;;;;;9.40;99.90;;;;;;6246956;23;19927;-69
2022/05/25 00:41:36;;;;;;;;;;;9.40;99.90;;;;;;6247325;23;19919;-70
2022/05/25 00:44:02;;;;;;;;;;;9.40;99.90;;;;;;6246489;23;20250;-71
2022/05/25 00:46:29;;;;;;;;;;;9.40;99.90;;;;;;6219234;23;19951;-70
2022/05/25 00:48:54;;;;;;;;;;;9.50;99.90;;;;;;6246674;23;19930;-70
2022/05/25 00:51:26;;;;;;;;;;;9.50;99.90;;;;;;6246816;23;19920;-70
2022/05/25 00:53:55;;;;;;;;;;;9.30;99.90;;;;;;6246582;23;19973;-70
2022/05/25 00:56:21;;;;;;;;;;;9.30;99.90;;;;;;6219442;23;20013;-69
2022/05/25 00:58:56;;;;;;;;;;;9.30;99.90;;;;;;6246177;23;20394;-70
2022/05/25 01:01:21;;;;;;;;;;;9.20;99.90;;;;;;6257883;23;19903;-70
2022/05/25 01:03:47;;;;;;;;;;;9.30;99.90;;;;;;6246655;23;19908;-70
2022/05/25 01:06:19;;;;;;;;;;;9.20;99.90;;;;;;6250334;23;19919;-70
2022/05/25 01:08:50;;;;;;;;;;;9.20;99.90;;;;;;6219345;23;19973;-69
2022/05/25 01:11:19;;;;;;;;;;;9.20;99.90;;;;;;6246268;23;19923;-69
2022/05/25 01:13:47;;;;;;;;;;;9.20;99.90;;;;;;6219562;23;19924;-69
2022/05/25 01:16:25;;;;;;;;;;;9.20;99.90;;;;;;6219612;23;19966;-68
2022/05/25 01:18:55;;;;;;;;;;;9.20;99.90;;;;;;6218619;23;19965;-70
2022/05/25 01:21:25;;;;;;;;;;;9.20;99.90;;;;;;6246164;23;20003;-69
2022/05/25 01:23:58;;;;;;;;;;;9.20;99.90;;;;;;6246297;23;19927;-68
2022/05/25 01:26:24;;;;;;;;;;;9.20;99.90;;;;;;6246353;23;19950;-69
2022/05/25 01:28:52;;;;;;;;;;;9.10;99.90;;;;;;6246118;23;19966;-70
2022/05/25 01:31:21;;;;;;;;;;;9.00;99.90;;;;;;6245957;23;19927;-69
2022/05/25 01:33:52;;;;;;;;;;;9.00;99.90;;;;;;6245638;23;20295;-70
2022/05/25 01:36:23;;;;;;;;;;;9.00;99.90;;;;;;6245875;23;19995;-69
2022/05/25 01:39:07;;;;;;;;;;;9.00;99.90;;;;;;6245377;23;20329;-70
2022/05/25 01:41:32;;;;;;;;;;;9.10;99.90;;;;;;6245826;23;19927;-69
2022/05/25 01:44:01;;;;;;;;;;;9.00;99.90;;;;;;6246138;23;19923;-69
2022/05/25 01:46:46;;;;;;;;;;;9.20;99.90;;;;;;6245889;23;19926;-69
2022/05/25 01:49:17;;;;;;;;;;;9.10;99.90;;;;;;6245496;23;19987;-69
2022/05/25 01:51:53;;;;;;;;;;;9.10;99.90;;;;;;6246148;23;19920;-70
2022/05/25 01:54:21;;;;;;;;;;;9.10;99.90;;;;;;6245640;23;20050;-70
2022/05/25 01:56:49;;;;;;;;;;;9.10;99.90;;;;;;6245794;23;19920;-68
2022/05/25 01:59:16;;;;;;;;;;;9.10;99.90;;;;;;6245846;23;19970;-70
2022/05/25 02:04:44;;;;;;;;;;;9.00;99.90;;;;;;6245300;23;19930;-71
2022/05/25 02:07:17;;;;;;;;;;;9.00;99.90;;;;;;6245383;23;20334;-70
2022/05/25 02:10:02;;;;;;;;;;;8.90;99.90;;;;;;6218653;23;19924;-69
2022/05/25 02:12:27;;;;;;;;;;;8.80;99.90;;;;;;6218683;23;19978;-69
2022/05/25 02:14:59;;;;;;;;;;;8.80;99.90;;;;;;6218516;23;19924;-69
2022/05/25 02:17:37;;;;;;;;;;;8.80;99.90;;;;;;6218458;23;20345;-70
2022/05/25 02:20:09;;;;;;;;;;;8.80;99.90;;;;;;6245753;23;19920;-67
2022/05/25 02:22:38;;;;;;;;;;;8.80;99.90;;;;;;6245618;23;19954;-70
2022/05/25 02:25:14;;;;;;;;;;;8.80;99.90;;;;;;6245700;23;19939;-69
2022/05/25 02:27:42;;;;;;;;;;;8.70;99.90;;;;;;6218969;23;19916;-69
2022/05/25 02:30:13;;;;;;;;;;;8.70;99.90;;;;;;6245988;23;19929;-69
2022/05/25 02:32:48;;;;;;;;;;;8.80;99.90;;;;;;6246008;23;19923;-69
2022/05/25 02:35:14;;;;;;;;;;;8.80;99.90;;;;;;6246144;23;19927;-70
2022/05/25 02:37:40;;;;;;;;;;;8.80;99.90;;;;;;6218776;23;20404;-69
2022/05/25 02:40:07;;;;;;;;;;;8.80;99.90;;;;;;6246844;23;19946;-70
2022/05/25 02:42:32;;;;;;;;;;;8.80;99.90;;;;;;6221617;23;20361;-69
2022/05/25 02:44:58;;;;;;;;;;;8.80;99.90;;;;;;6223279;23;19919;-69
2022/05/25 02:47:23;;;;;;;;;;;8.80;99.90;;;;;;6251241;23;20215;-70
2022/05/25 02:49:49;;;;;;;;;;;8.80;99.90;;;;;;6267191;23;19904;-69
2022/05/25 02:52:15;;;;;;;;;;;8.70;99.90;;;;;;6265518;23;19924;-69
2022/05/25 02:54:40;;;;;;;;;;;8.90;99.90;;;;;;6249370;23;19920;-68
2022/05/25 02:57:07;;;;;;;;;;;8.60;99.90;;;;;;6248589;23;19919;-70
2022/05/25 02:59:32;;;;;;;;;;;8.60;99.90;;;;;;6247349;23;19920;-70
2022/05/25 03:01:58;;;;;;;;;;;8.60;99.90;;;;;;6247551;23;19919;-68
2022/05/25 03:04:24;;;;;;;;;;;8.60;99.90;;;;;;6247957;23;20238;-64
2022/05/25 03:06:51;;;;;;;;;;;8.60;99.90;;;;;;6220932;23;19935;-68
2022/05/25 03:09:17;;;;;;;;;;;8.60;99.90;;;;;;6245747;23;19926;-69
2022/05/25 03:11:42;;;;;;;;;;;8.60;99.90;;;;;;6247624;23;19920;-70
2022/05/25 03:14:08;;;;;;;;;;;8.60;99.90;;;;;;6220839;23;19946;-70
2022/05/25 03:16:33;;;;;;;;;;;8.70;99.90;;;;;;6220987;23;20353;-70
2022/05/25 03:18:59;;;;;;;;;;;8.50;99.90;;;;;;6247532;23;20356;-69
2022/05/25 03:21:25;;;;;;;;;;;8.50;99.90;;;;;;6246102;23;19924;-69
2022/05/25 03:23:50;;;;;;;;;;;8.50;99.90;;;;;;6246987;23;19926;-69
2022/05/25 03:26:16;;;;;;;;;;;8.50;99.90;;;;;;6221085;23;19951;-69
2022/05/25 03:28:42;;;;;;;;;;;8.50;99.90;;;;;;6220556;23;19974;-68
2022/05/25 03:31:07;;;;;;;;;;;8.50;99.90;;;;;;6220730;23;19970;-68
2022/05/25 03:33:33;;;;;;;;;;;8.50;99.90;;;;;;6245559;23;19927;-69
2022/05/25 03:35:59;;;;;;;;;;;8.50;99.90;;;;;;6195133;23;19919;-69
2022/05/25 03:38:27;;;;;;;;;;;8.60;99.90;;;;;;6220471;23;19923;-69
2022/05/25 03:40:53;;;;;;;;;;;9.00;99.90;;;;;;6246384;23;19920;-69
2022/05/25 03:43:18;;;;;;;;;;;8.50;99.90;;;;;;6247326;23;19977;-70
2022/05/25 03:45:44;;;;;;;;;;;8.50;99.90;;;;;;6220532;23;20357;-69
2022/05/25 03:48:10;;;;;;;;;;;8.60;99.90;;;;;;6220556;23;20021;-69
2022/05/25 03:50:38;;;;;;;;;;;8.60;99.90;;;;;;6220567;23;20023;-69
2022/05/25 03:53:05;;;;;;;;;;;9.10;99.90;;;;;;6220299;23;20152;-68
2022/05/25 03:55:30;;;;;;;;;;;8.60;99.90;;;;;;6219857;23;19926;-69
2022/05/25 03:57:56;;;;;;;;;;;8.60;99.90;;;;;;6245431;23;19994;-69
2022/05/25 04:00:21;;;;;;;;;;;8.60;99.90;;;;;;6220407;23;19920;-69
2022/05/25 04:02:47;;;;;;;;;;;8.60;99.90;;;;;;6220283;23;19923;-70
2022/05/25 04:05:13;;;;;;;;;;;9.10;99.90;;;;;;6245562;23;19920;-69
2022/05/25 04:07:40;;;;;;;;;;;8.70;99.90;;;;;;6247016;23;20330;-69
2022/05/25 04:10:06;;;;;;;;;;;8.70;99.90;;;;;;6220154;23;20026;-69
2022/05/25 04:12:32;;;;;;;;;;;8.70;99.90;;;;;;6219717;23;19955;-67
2022/05/25 04:14:57;;;;;;;;;;;9.40;99.90;;;;;;6247073;23;19926;-69
2022/05/25 04:17:23;;;;;;;;;;;9.20;99.90;;;;;;6244959;23;19919;-68
2022/05/25 04:19:50;;;;;;;;;;;9.00;99.90;;;;;;6220199;23;19919;-69
2022/05/25 04:22:16;;;;;;;;;;;9.00;99.90;;;;;;6220390;23;19970;-70
2022/05/25 04:24:41;;;;;;;;;;;9.20;99.90;;;;;;6219654;23;19920;-69
2022/05/25 04:27:07;;;;;;;;;;;9.20;99.90;;;;;;6219588;23;19946;-70
2022/05/25 04:29:35;;;;;;;;;;;9.50;99.90;;;;;;6219891;23;19947;-69
2022/05/25 04:32:01;;;;;;;;;;;9.50;99.90;;;;;;6247006;23;19935;-69
2022/05/25 04:34:26;;;;;;;;;;;9.30;99.90;;;;;;6247046;23;19920;-66
2022/05/25 04:36:52;;;;;;;;;;;9.30;99.90;;;;;;6207846;22;19920;-71
2022/05/25 04:39:17;;;;;;;;;;;9.60;99.90;;;;;;6274426;23;19908;-69
2022/05/25 04:41:43;;;;;;;;;;;9.50;99.90;;;;;;6224507;23;19923;-69
2022/05/25 04:44:09;;;;;;;;;;;10.10;99.90;;;;;;6218845;23;20026;-70
2022/05/25 04:46:35;;;;;;;;;;;9.40;99.90;;;;;;6195087;23;20222;-70
2022/05/25 04:49:01;;;;;;;;;;;10.10;99.90;;;;;;6220035;23;20001;-71
2022/05/25 04:51:27;;;;;;;;;;;9.50;99.90;;;;;;6246499;23;20323;-70
2022/05/25 04:53:53;;;;;;;;;;;9.50;99.90;;;;;;6219801;23;19927;-73
2022/05/25 04:59:03;;;;;;;;;;;9.60;99.90;;;;;;6246187;23;19943;-68
2022/05/25 05:01:30;;;;;;;;;;;9.60;99.90;;;;;;6219750;23;20242;-69
2022/05/25 05:03:56;;;;;;;;;;;10.30;99.90;;;;;;6218838;23;19927;-68
2022/05/25 05:06:21;;;;;;;;;;;10.20;99.90;;;;;;6219782;23;20246;-70
2022/05/25 05:08:47;;;;;;;;;;;9.70;99.90;;;;;;6219849;23;19994;-70
2022/05/25 05:11:14;;;;;;;;;;;9.80;99.90;;;;;;6219599;23;19919;-70
2022/05/25 05:13:40;;;;;;;;;;;9.80;99.90;;;;;;6219450;23;19924;-69
2022/05/25 05:16:07;;;;;;;;;;;10.30;99.90;;;;;;6219203;23;19923;-68
2022/05/25 05:18:33;;;;;;;;;;;9.90;99.90;;;;;;6246285;23;19927;-73
2022/05/25 05:20:59;;;;;;;;;;;10.00;99.90;;;;;;6219049;23;19920;-71
2022/05/25 05:23:25;;;;;;;;;;;10.10;99.90;;;;;;6219531;23;19920;-72
2022/05/25 05:25:50;;;;;;;;;;;10.50;99.90;;;;;;6219078;23;19919;-70
2022/05/25 05:28:24;;;;;;;;;;;10.20;99.90;;;;;;6219448;23;19926;-70
2022/05/25 05:30:51;;;;;;;;;;;10.20;99.90;;;;;;6241487;23;20353;-75
2022/05/25 05:33:17;;;;;;;;;;;10.30;99.90;;;;;;6217570;23;19966;-74
2022/05/25 05:35:44;;;;;;;;;;;10.40;99.90;;;;;;6244366;23;19916;-74
2022/05/25 05:38:10;;;;;;;;;;;10.40;99.90;;;;;;6245175;23;19940;-77
2022/05/25 05:40:35;;;;;;;;;;;10.80;99.90;;;;;;6243974;23;20049;-76
2022/05/25 05:43:02;;;;;;;;;;;10.60;99.90;;;;;;6245094;23;19954;-76
2022/05/25 05:45:31;;;;;;;;;;;11.00;99.90;;;;;;6244511;23;19920;-76
2022/05/25 05:48:02;;;;;;;;;;;10.70;99.90;;;;;;6244465;23;19927;-75
2022/05/25 05:50:28;;;;;;;;;;;10.90;99.90;;;;;;6244924;23;19919;-75
2022/05/25 05:52:57;;;;;;;;;;;10.90;99.90;;;;;;6216675;23;19985;-74
2022/05/25 05:55:22;;;;;;;;;;;11.10;99.90;;;;;;6216979;23;19937;-75
2022/05/25 05:57:48;;;;;;;;;;;11.00;99.90;;;;;;6191332;23;19926;-74
2022/05/25 06:00:15;;;;;;;;;;;11.30;99.90;;;;;;6243920;23;20123;-76
2022/05/25 06:02:43;;;;;;;;;;;11.20;99.90;;;;;;6243145;23;20360;-76
2022/05/25 06:05:09;;;;;;;;;;;11.20;99.90;;;;;;6216793;23;19924;-76
2022/05/25 06:07:34;;;;;;;;;;;11.30;99.90;;;;;;6244596;23;19923;-76
2022/05/25 06:10:00;;;;;;;;;;;11.40;99.90;;;;;;6218036;23;19920;-75
2022/05/25 06:12:27;;;;;;;;;;;11.40;99.90;;;;;;6192931;23;20294;-74
2022/05/25 06:14:53;;;;;;;;;;;11.50;99.90;;;;;;6245164;23;19920;-76
2022/05/25 06:20:03;;;;;;;;;;;11.70;99.90;;;;;;6246525;23;19924;-74
2022/05/25 06:22:31;;;;;;;;;;;11.80;99.90;;;;;;6254725;23;19926;-74
2022/05/25 06:24:57;;;;;;;;;;;11.90;99.90;;;;;;6269642;23;19948;-76
2022/05/25 06:27:22;;;;;;;;;;;11.90;99.90;;;;;;6265999;23;19915;-73
2022/05/25 06:29:48;;;;;;;;;;;12.00;99.90;;;;;;6250603;23;19927;-73
2022/05/25 06:32:15;;;;;;;;;;;12.40;99.90;;;;;;6247260;23;20006;-74
2022/05/25 06:34:42;;;;;;;;;;;12.20;99.90;;;;;;6216529;23;19916;-75
2022/05/25 06:37:12;;;;;;;;;;;12.30;99.90;;;;;;6244702;23;19920;-75
2022/05/25 06:39:38;;;;;;;;;;;12.50;99.90;;;;;;6244627;23;19916;-76
2022/05/25 06:42:04;;;;;;;;;;;12.50;99.90;;;;;;6244883;23;19998;-75
2022/05/25 06:44:31;;;;;;;;;;;12.50;99.90;;;;;;6244813;23;19950;-73
2022/05/25 06:46:56;;;;;;;;;;;12.70;99.90;;;;;;6244259;23;20334;-76
2022/05/25 06:49:22;;;;;;;;;;;13.10;99.90;;;;;;6242163;23;19923;-80
2022/05/25 06:51:47;;;;;;;;;;;13.00;99.90;;;;;;6243891;23;19927;-83
2022/05/25 06:54:14;;;;;;;;;;;13.00;99.90;;;;;;6244393;23;19920;-80
2022/05/25 06:56:42;;;;;;;;;;;13.10;99.90;;;;;;6243029;23;19931;-78
2022/05/25 06:59:08;;;;;;;;;;;13.20;99.90;;;;;;6191769;23;20353;-79
2022/05/25 07:01:35;;;;;;;;;;;13.40;99.90;;;;;;6193731;23;19923;-81
2022/05/25 07:04:01;;;;;;;;;;;13.50;99.90;;;;;;6247077;23;19974;-78
2022/05/25 07:06:26;;;;;;;;;;;13.70;99.90;;;;;;6243774;23;19949;-80
2022/05/25 07:08:53;;;;;;;;;;;13.70;99.90;;;;;;6243443;23;19927;-80
2022/05/25 07:11:19;;;;;;;;;;;13.80;99.90;;;;;;6244470;23;19941;-78
2022/05/25 07:13:45;;;;;;;;;;;14.00;99.90;;;;;;6216654;23;19994;-78
2022/05/25 07:16:13;;;;;;;;;;;14.10;99.90;;;;;;6244682;23;19962;-80
2022/05/25 07:18:39;;;;;;;;;;;14.20;99.90;;;;;;6215188;23;19928;-78
2022/05/25 07:21:08;;;;;;;;;;;14.40;99.90;;;;;;6243091;23;19966;-80
2022/05/25 07:23:35;;;;;;;;;;;14.50;99.90;;;;;;6243925;23;20181;-79
2022/05/25 07:26:00;;;;;;;;;;;14.90;99.90;;;;;;6216245;23;19920;-80
2022/05/25 07:28:26;;;;;;;;;;;14.80;99.90;;;;;;6244470;23;19990;-79
2022/05/25 07:30:56;;;;;;;;;;;14.90;99.90;;;;;;6214953;23;20282;-86
2022/05/25 07:33:22;;;;;;;;;;;14.90;99.90;;;;;;6239045;23;19920;-80
2022/05/25 07:35:47;;;;;;;;;;;15.10;99.90;;;;;;6241355;23;19966;-74
2022/05/25 07:38:13;;;;;;;;;;;15.20;99.90;;;;;;6191419;23;19926;-71
2022/05/25 07:40:40;;;;;;;;;;;15.30;99.90;;;;;;6217507;23;19919;-73
2022/05/25 07:43:17;;;;;;;;;;;15.50;99.90;;;;;;6217739;23;19959;-78
2022/05/25 07:45:45;;;;;;;;;;;15.70;99.90;;;;;;6191291;23;19966;-72
2022/05/25 07:48:11;;;;;;;;;;;15.80;99.90;;;;;;6192635;23;20045;-71
2022/05/25 07:50:37;;;;;;;;;;;15.90;99.90;;;;;;6242967;23;19955;-74
2022/05/25 07:53:55;;;;;;;;;;;15.90;99.90;;;;;;6241912;23;19927;-74
2022/05/25 07:55:54;;;;;;;;;;;15.90;99.90;;;;;;6215954;23;20345;-73
2022/05/25 07:58:20;;;;;;;;;;;16.30;99.90;;;;;;6191000;23;19924;-72
2022/05/25 08:00:46;;;;;;;;;;;16.20;99.90;;;;;;6243892;23;19923;-71
2022/05/25 08:05:59;;;;;;;;;;;16.50;99.90;;;;;;6244483;23;19926;-73
2022/05/25 08:08:25;;;;;;;;;;;16.60;99.90;;;;;;6220916;23;20110;-78
2022/05/25 08:10:53;;;;;;;;;;;16.60;99.90;;;;;;6269797;23;19923;-75
2022/05/25 08:13:19;;;;;;;;;;;16.60;99.90;;;;;;6255506;23;19931;-73
2022/05/25 08:15:45;;;;;;;;;;;16.70;99.90;;;;;;6245093;23;19923;-78
2022/05/25 08:18:11;;;;;;;;;;;16.90;99.90;;;;;;6247224;23;19978;-72
2022/05/25 08:20:37;;;;;;;;;;;17.00;99.90;;;;;;6243310;23;19919;-75
2022/05/25 08:23:06;;;;;;;;;;;17.00;99.90;;;;;;6243285;23;19926;-75
2022/05/25 08:25:35;;;;;;;;;;;17.00;99.90;;;;;;6213614;23;19927;-72
2022/05/25 08:28:06;;;;;;;;;;;17.00;99.90;;;;;;6217634;23;19950;-77
2022/05/25 08:30:32;;;;;;;;;;;17.10;99.90;;;;;;6246339;23;19920;-72
2022/05/25 08:32:58;;;;;;;;;;;17.00;99.90;;;;;;6197843;23;19919;-74
2022/05/25 08:35:24;;;;;;;;;;;17.10;99.90;;;;;;6217346;23;20069;-72
2022/05/25 08:37:49;;;;;;;;;;;17.20;99.90;;;;;;6217317;23;19920;-73
2022/05/25 08:40:18;;;;;;;;;;;17.40;99.90;;;;;;6189938;23;19962;-71
2022/05/25 08:42:50;;;;;;;;;;;17.50;99.90;;;;;;6244907;23;19920;-72
2022/05/25 08:45:16;;;;;;;;;;;17.80;99.90;;;;;;6215214;23;20349;-74
2022/05/25 08:47:47;;;;;;;;;;;17.90;99.90;;;;;;6218466;23;19920;-73
2022/05/25 08:50:13;;;;;;;;;;;17.90;99.90;;;;;;6242710;23;20021;-72
2022/05/25 08:52:38;;;;;;;;;;;18.00;99.90;;;;;;6243422;23;19975;-71
2022/05/25 08:55:07;;;;;;;;;;;18.30;99.90;;;;;;6213974;23;20377;-71
2022/05/25 08:57:53;;;;;;;;;;;18.20;99.90;;;;;;6244378;23;19919;-72
2022/05/25 09:00:19;;;;;;;;;;;18.20;99.90;;;;;;6243254;23;19916;-72
2022/05/25 09:02:52;;;;;;;;;;;18.20;99.90;;;;;;6244180;23;19930;-73
2022/05/25 09:05:22;;;;;;;;;;;18.30;99.90;;;;;;6241389;23;20002;-70
2022/05/25 09:07:54;;;;;;;;;;;18.20;99.90;;;;;;6217122;23;19924;-72
2022/05/25 09:10:22;;;;;;;;;;;18.20;99.90;;;;;;6243628;23;19919;-72
2022/05/25 09:12:49;;;;;;;;;;;18.10;99.90;;;;;;6192188;23;19966;-69
2022/05/25 09:15:15;;;;;;;;;;;18.00;99.90;;;;;;6217979;23;19946;-70
2022/05/25 09:17:59;;;;;;;;;;;18.10;99.90;;;;;;6192470;23;19919;-71
2022/05/25 09:20:32;;;;;;;;;;;17.90;99.90;;;;;;6243911;23;19923;-77
2022/05/25 09:22:58;;;;;;;;;;;17.80;99.90;;;;;;6216700;23;19920;-76
2022/05/25 09:25:24;;;;;;;;;;;17.70;99.90;;;;;;6241714;23;19923;-75
2022/05/25 09:28:07;;;;;;;;;;;17.70;99.90;;;;;;6216214;23;19920;-75
2022/05/25 09:30:35;;;;;;;;;;;17.90;99.90;;;;;;6215574;23;19973;-72
2022/05/25 09:33:04;;;;;;;;;;;18.00;99.90;;;;;;6244041;23;20269;-78
2022/05/25 09:35:32;;;;;;;;;;;18.00;99.90;;;;;;6243048;23;19923;-82
2022/05/25 09:38:01;;;;;;;;;;;18.00;99.90;;;;;;6244273;23;19969;-77
2022/05/25 09:40:35;;;;;;;;;;;18.10;99.90;;;;;;6217797;23;19996;-76
2022/05/25 09:43:02;;;;;;;;;;;18.10;99.90;;;;;;6243137;23;19931;-71
2022/05/25 09:45:34;;;;;;;;;;;17.90;99.90;;;;;;6241310;23;19926;-72
2022/05/25 09:48:10;;;;;;;;;;;17.80;99.90;;;;;;6206303;23;19926;-71
2022/05/25 09:50:41;;;;;;;;;;;17.80;99.90;;;;;;6259432;23;19920;-75
2022/05/25 09:53:09;;;;;;;;;;;17.70;99.90;;;;;;6243199;23;19927;-73
2022/05/25 09:55:37;;;;;;;;;;;17.70;99.90;;;;;;6216005;23;19923;-70
2022/05/25 09:58:06;;;;;;;;;;;17.90;99.90;;;;;;6244101;23;19927;-66
2022/05/25 10:00:40;;;;;;;;;;;18.10;99.90;;;;;;6244213;23;20284;-72
2022/05/25 10:03:23;;;;;;;;;;;18.20;99.90;;;;;;6240661;23;20010;-70
2022/05/25 10:05:56;;;;;;;;;;;18.30;99.90;;;;;;6192126;23;19974;-75
2022/05/25 10:08:39;;;;;;;;;;;18.50;99.90;;;;;;6243825;23;19923;-74
2022/05/25 10:11:33;;;;;;;;;;;18.60;99.90;;;;;;6216785;23;19985;-74
2022/05/25 10:14:14;;;;;;;;;;;18.60;99.90;;;;;;6241941;23;19998;-74
2022/05/25 10:16:40;;;;;;;;;;;18.40;99.90;;;;;;6217003;23;19957;-72
2022/05/25 10:19:09;;;;;;;;;;;18.20;99.90;;;;;;6243206;23;19923;-75
2022/05/25 10:21:35;;;;;;;;;;;18.00;99.90;;;;;;6243766;23;20002;-72
2022/05/25 10:24:02;;;;;;;;;;;18.00;99.90;;;;;;6241846;23;19923;-73
2022/05/25 10:26:31;;;;;;;;;;;18.20;99.90;;;;;;6243733;23;19974;-72
2022/05/25 10:29:10;;;;;;;;;;;18.40;99.90;;;;;;6191123;23;19925;-74
2022/05/25 10:37:23;;;;;;;;;;;18.60;99.90;;;;;;6243537;23;20413;-75
2022/05/25 10:39:55;;;;;;;;;;;18.70;99.90;;;;;;6243300;23;19927;-74
2022/05/25 10:42:44;;;;;;;;;;;18.80;99.90;;;;;;6243820;23;20237;-73
2022/05/25 10:45:20;;;;;;;;;;;18.80;99.90;;;;;;6214524;23;20377;-73
2022/05/25 10:47:49;;;;;;;;;;;18.80;99.90;;;;;;6243429;23;20391;-74
2022/05/25 10:50:17;;;;;;;;;;;18.60;99.90;;;;;;6216315;23;19923;-73
2022/05/25 10:52:45;;;;;;;;;;;18.60;99.90;;;;;;6191764;23;20241;-74
2022/05/25 10:55:11;;;;;;;;;;;18.30;99.90;;;;;;6243038;23;19915;-74
2022/05/25 10:57:56;;;;;;;;;;;18.30;99.90;;;;;;6217096;23;19929;-75
2022/05/25 11:00:55;;;;;;;;;;;18.30;99.90;;;;;;6217969;23;19916;-80
2022/05/25 11:03:39;;;;;;;;;;;18.30;99.90;;;;;;6193249;23;20289;-72
2022/05/25 11:06:31;;;;;;;;;;;18.40;99.90;;;;;;6217872;23;19923;-71
2022/05/25 11:08:57;;;;;;;;;;;18.20;99.90;;;;;;6244637;23;19920;-72
2022/05/25 11:11:43;;;;;;;;;;;18.00;99.90;;;;;;6245657;23;19919;-72
2022/05/25 11:14:08;;;;;;;;;;;17.70;99.90;;;;;;6195084;23;19931;-71
2022/05/25 11:16:43;;;;;;;;;;;17.60;99.90;;;;;;6246018;23;19919;-72
2022/05/25 11:19:11;;;;;;;;;;;17.60;99.90;;;;;;6246334;23;19924;-71
2022/05/25 11:21:37;;;;;;;;;;;17.80;99.90;;;;;;6247016;23;20253;-72
2022/05/25 11:24:08;;;;;;;;;;;18.40;99.90;;;;;;6246517;23;19919;-71
2022/05/25 11:26:41;;;;;;;;;;;18.80;99.90;;;;;;6248517;23;19926;-72
2022/05/25 11:29:25;;;;;;;;;;;19.10;99.90;;;;;;6252068;23;19960;-73
2022/05/25 11:31:53;;;;;;;;;;;19.60;99.90;;;;;;6256168;23;19919;-71
2022/05/25 11:34:37;;;;;;;;;;;19.90;99.90;;;;;;6249644;23;19919;-73
2022/05/25 11:37:02;;;;;;;;;;;20.10;99.90;;;;;;6247408;23;19977;-71
2022/05/25 11:39:51;;;;;;;;;;;20.00;99.90;;;;;;6246984;23;20301;-72
2022/05/25 11:42:25;;;;;;;;;;;20.00;99.90;;;;;;6243897;23;19923;-71
2022/05/25 11:44:56;;;;;;;;;;;19.90;99.90;;;;;;6220147;23;19999;-72
2022/05/25 11:47:40;;;;;;;;;;;19.70;99.90;;;;;;6194618;23;19923;-80
2022/05/25 11:50:08;;;;;;;;;;;19.40;99.90;;;;;;6219669;23;20379;-71
2022/05/25 11:52:35;;;;;;;;;;;19.20;99.90;;;;;;6195060;23;19919;-73
2022/05/25 11:55:09;;;;;;;;;;;19.10;99.90;;;;;;6246436;23;19916;-79
2022/05/25 11:57:53;;;;;;;;;;;19.50;99.90;;;;;;6246632;23;20018;-75
2022/05/25 12:00:37;;;;;;;;;;;19.60;99.90;;;;;;6246191;23;19916;-74
2022/05/25 12:03:06;;;;;;;;;;;19.90;99.90;;;;;;6191375;23;19920;-72
2022/05/25 12:05:50;;;;;;;;;;;19.90;99.90;;;;;;6219182;23;19922;-70
2022/05/25 12:08:42;;;;;;;;;;;19.80;99.90;;;;;;6245490;23;20379;-70
2022/05/25 12:11:33;;;;;;;;;;;19.60;99.90;;;;;;6194702;23;20360;-77
2022/05/25 12:13:58;;;;;;;;;;;19.60;99.90;;;;;;6246372;23;19982;-77
2022/05/25 12:16:28;;;;;;;;;;;19.80;99.90;;;;;;6194825;23;20372;-70
2022/05/25 12:19:11;;;;;;;;;;;19.70;99.90;;;;;;6246163;23;19927;-71
2022/05/25 12:21:41;;;;;;;;;;;19.40;99.90;;;;;;6245603;23;19966;-72
2022/05/25 12:24:09;;;;;;;;;;;18.90;99.90;;;;;;6245856;23;19919;-71
2022/05/25 12:26:39;;;;;;;;;;;18.60;99.90;;;;;;6246503;23;20252;-73
2022/05/25 12:29:16;;;;;;;;;;;18.20;99.90;;;;;;6245958;23;20367;-70
2022/05/25 12:31:43;;;;;;;;;;;18.00;99.90;;;;;;6246520;23;19942;-73
2022/05/25 12:34:12;;;;;;;;;;;17.70;99.90;;;;;;6244423;23;19923;-77
2022/05/25 12:36:38;;;;;;;;;;;17.60;99.90;;;;;;6247080;23;19958;-71
2022/05/25 12:39:04;;;;;;;;;;;17.20;99.90;;;;;;6219164;23;19920;-70
2022/05/25 12:41:31;;;;;;;;;;;16.70;99.90;;;;;;6220348;23;19951;-74
2022/05/25 12:43:57;;;;;;;;;;;16.20;99.90;;;;;;6251671;23;20284;-78
2022/05/25 12:49:30;;;;;;;;;;;15.40;99.90;;;;;;6265339;23;19960;-74
2022/05/25 12:51:56;;;;;;;;;;;15.30;99.90;;;;;;6263308;23;19964;-73
2022/05/25 12:54:22;;;;;;;;;;;15.30;99.90;;;;;;6232464;23;19919;-71
2022/05/25 12:56:49;;;;;;;;;;;15.30;99.90;;;;;;6220437;23;20286;-78
2022/05/25 12:59:47;;;;;;;;;;;15.40;99.90;;;;;;6246322;23;19920;-77
2022/05/25 13:02:18;;;;;;;;;;;15.70;99.90;;;;;;6094449;23;19946;-73
2022/05/25 13:04:49;;;;;;;;;;;16.00;99.90;;;;;;6097046;23;19921;-76
2022/05/25 13:07:18;;;;;;;;;;;16.30;99.90;;;;;;6093220;23;19968;-74
2022/05/25 13:09:45;;;;;;;;;;;16.70;99.90;;;;;;6094260;23;19922;-75
2022/05/25 13:12:29;;;;;;;;;;;16.90;99.90;;;;;;6045148;23;19926;-76
2022/05/25 13:14:55;;;;;;;;;;;17.20;99.90;;;;;;6093096;23;19936;-77
2022/05/25 13:17:39;;;;;;;;;;;17.60;99.90;;;;;;6092625;23;19932;-77
2022/05/25 13:20:07;;;;;;;;;;;17.80;99.90;;;;;;6063970;23;19929;-78
2022/05/25 13:22:33;;;;;;;;;;;18.00;99.90;;;;;;6066134;23;19913;-76
2022/05/25 13:24:58;;;;;;;;;;;18.00;99.90;;;;;;6039726;23;19921;-78
2022/05/25 13:27:26;;;;;;;;;;;17.90;99.90;;;;;;6039742;23;20378;-75
2022/05/25 13:29:52;;;;;;;;;;;17.70;99.90;;;;;;6063819;23;20284;-76
2022/05/25 13:32:33;;;;;;;;;;;17.30;99.90;;;;;;6063990;23;19949;-77
2022/05/25 13:35:01;;;;;;;;;;;17.00;99.90;;;;;;6039433;23;20367;-78
2022/05/25 13:37:29;;;;;;;;;;;16.80;99.90;;;;;;6093013;23;20323;-76
2022/05/25 13:39:55;;;;;;;;;;;16.90;99.90;;;;;;6213783;23;19955;-77
2022/05/25 13:42:21;;;;;;;;;;;16.80;99.90;;;;;;6162719;23;19927;-76
2022/05/25 13:44:49;;;;;;;;;;;17.00;99.90;;;;;;6187436;23;19951;-77
2022/05/25 13:47:20;;;;;;;;;;;17.20;99.90;;;;;;6186075;23;19924;-76
2022/05/25 13:49:50;;;;;;;;;;;17.40;99.90;;;;;;6214659;23;19919;-76
2022/05/25 13:52:23;;;;;;;;;;;17.50;99.90;;;;;;6214328;23;19988;-77
2022/05/25 13:54:56;;;;;;;;;;;17.40;99.90;;;;;;6187076;23;19931;-79
2022/05/25 13:57:38;;;;;;;;;;;17.30;99.90;;;;;;6213536;23;19931;-74
2022/05/25 14:00:12;;;;;;;;;;;17.30;99.90;;;;;;6214091;23;19958;-73
2022/05/25 14:02:42;;;;;;;;;;;17.40;99.90;;;;;;6214288;23;20326;-75
2022/05/25 14:05:08;;;;;;;;;;;17.50;99.90;;;;;;6214097;23;20245;-71
2022/05/25 14:07:39;;;;;;;;;;;17.50;99.90;;;;;;6188325;23;19916;-75
2022/05/25 14:13:23;;;;;;;;;;;17.70;99.90;;;;;;6122223;23;19924;-74
2022/05/25 14:16:17;;;;;;;;;;;17.70;99.90;;;;;;6074247;23;20002;-75
2022/05/25 14:18:46;;;;;;;;;;;17.80;99.90;;;;;;6086062;23;19928;-74
2022/05/25 14:21:26;;;;;;;;;;;17.80;99.90;;;;;;6151841;23;20009;-74
2022/05/25 14:23:52;;;;;;;;;;;17.80;99.90;;;;;;6127733;23;19927;-71
2022/05/25 14:26:23;;;;;;;;;;;17.80;99.90;;;;;;6153853;23;19991;-75
2022/05/25 14:28:59;;;;;;;;;;;17.80;99.90;;;;;;6171217;23;19968;-72
2022/05/25 14:31:33;;;;;;;;;;;17.80;99.90;;;;;;6129010;23;19953;-73
2022/05/25 14:34:07;;;;;;;;;;;17.90;99.90;;;;;;6105269;23;19921;-75
2022/05/25 14:36:35;;;;;;;;;;;17.90;99.90;;;;;;6104912;23;19921;-79
2022/05/25 14:39:04;;;;;;;;;;;17.90;99.90;;;;;;6103571;23;20355;-75
2022/05/25 14:41:44;;;;;;;;;;;18.00;99.90;;;;;;6126241;23;20345;-70
2022/05/25 14:44:31;;;;;;;;;;;18.00;99.90;;;;;;6101573;23;20329;-75
2022/05/25 14:47:02;;;;;;;;;;;18.00;99.90;;;;;;6129719;23;19921;-72
2022/05/25 14:49:34;;;;;;;;;;;18.10;99.90;;;;;;6175108;23;19970;-75
2022/05/25 14:52:00;;;;;;;;;;;18.30;99.90;;;;;;6215480;23;19943;-73
2022/05/25 14:54:34;;;;;;;;;;;18.20;99.90;;;;;;6189808;23;19919;-75
2022/05/25 14:57:07;;;;;;;;;;;18.20;99.90;;;;;;6189763;23;19920;-76
2022/05/25 15:00:07;;;;;;;;;;;;;;;;;;;;;
2022/05/25 15:02:55;;;;;;;;;;;18.10;99.90;;;;;;6213109;23;19919;-71
2022/05/25 15:05:26;;;;;;;;;;;18.00;99.90;;;;;;6214640;23;19920;-69